createdAt,value
2022-11-28T02:21:56.914Z,26.43
2022-11-28T06:17:32.677Z,38.13
2022-11-28T06:41:00.204Z,30.83
2022-11-28T06:44:25.799Z,31.50
2022-11-28T07:02:07.740Z,30.90
2022-11-28T07:05:32.094Z,32.78
2022-11-28T07:08:59.244Z,30.13
2022-11-28T07:12:20.012Z,27.48
2022-11-28T07:24:26.266Z,31.08
2022-11-28T07:26:37.229Z,32.10
2022-11-28T07:29:46.038Z,33.72
2022-11-28T07:32:59.574Z,30.42
2022-11-28T07:50:38.730Z,33.03
2022-11-28T07:54:23.700Z,31.58
2022-11-28T07:58:13.814Z,32.05
2022-11-28T08:01:56.356Z,35.05
2022-11-28T08:08:28.247Z,34.30
2022-11-28T08:12:13.629Z,35.75
2022-11-28T08:15:19.351Z,37.80
2022-11-28T08:18:46.131Z,35.55
2022-11-28T08:22:14.997Z,33.53
2022-11-28T08:25:32.519Z,34.03
2022-11-28T08:29:16.250Z,38.05
2022-11-28T08:36:00.743Z,40.00
2022-11-28T08:39:23.989Z,34.65
2022-11-28T08:46:52.874Z,32.85
2022-11-28T08:49:47.651Z,32.00
2022-11-28T08:52:42.658Z,32.05
2022-11-28T08:56:06.675Z,31.80
2022-11-28T08:59:35.356Z,34.92
2022-11-28T09:03:03.621Z,32.13
2022-11-28T09:06:22.313Z,34.60
2022-11-28T09:10:08.624Z,33.35
2022-11-28T09:13:59.115Z,31.77
2022-11-28T09:17:31.460Z,32.10
2022-11-28T09:29:35.721Z,29.05
2022-11-28T09:33:08.418Z,31.77
2022-11-28T09:36:51.062Z,28.52
2022-11-28T09:58:16.816Z,26.98
2022-11-28T10:01:39.204Z,26.85
2022-11-28T10:11:34.634Z,26.15
2022-11-28T10:14:15.341Z,27.77
2022-11-28T10:18:39.726Z,27.42
2022-11-28T10:22:24.926Z,29.25
2022-11-28T10:34:49.415Z,27.17
2022-11-28T10:42:58.947Z,28.00
2022-11-28T10:47:04.571Z,27.17
2022-11-28T10:53:12.806Z,32.10
2022-11-28T10:57:09.392Z,29.80
2022-11-28T11:01:26.577Z,24.40
2022-11-28T11:05:53.045Z,26.90
2022-11-28T11:09:45.037Z,25.92
2022-11-28T11:12:46.418Z,28.85
2022-11-28T11:15:45.517Z,27.80
2022-11-28T11:19:37.057Z,29.42
2022-11-28T11:22:37.494Z,29.30
2022-11-28T11:29:51.716Z,27.92
2022-11-28T11:32:51.452Z,28.38
2022-11-28T11:36:50.543Z,28.40
2022-11-28T11:39:57.182Z,30.77
2022-11-28T11:42:59.860Z,24.00
2022-11-28T11:46:30.582Z,22.73
2022-11-28T11:54:38.569Z,24.85
2022-11-28T11:57:34.092Z,24.92
2022-11-28T12:06:18.886Z,27.17
2022-11-28T12:11:46.912Z,23.73
2022-11-28T12:19:10.919Z,25.48
2022-11-28T12:26:52.547Z,28.00
2022-11-28T12:34:05.610Z,35.13
2022-11-28T12:47:24.939Z,36.43
2022-11-28T13:48:14.168Z,40.00
2022-11-28T14:00:05.915Z,37.28
2022-11-28T14:12:27.760Z,40.53
2022-11-28T14:19:44.806Z,43.33
2022-11-28T14:37:33.284Z,40.53
2022-11-28T15:13:39.501Z,43.47
2022-11-28T15:21:29.391Z,45.88
2022-11-28T15:43:31.099Z,39.85
2022-11-28T16:18:38.068Z,48.87
2022-11-28T16:22:03.649Z,51.97
2022-11-28T16:25:23.489Z,53.65
2022-11-28T16:28:40.599Z,49.17
2022-11-28T16:32:01.027Z,46.22
2022-11-28T16:35:29.907Z,51.28
2022-11-28T16:38:25.268Z,54.42
2022-11-28T16:41:34.535Z,51.42
2022-11-28T16:44:28.318Z,51.55
2022-11-28T16:47:29.535Z,42.65
2022-11-28T16:50:31.471Z,41.10
2022-11-28T16:53:43.961Z,44.03
2022-11-28T16:56:35.945Z,40.58
2022-11-28T16:59:25.608Z,43.75
2022-11-28T17:02:19.787Z,51.50
2022-11-28T17:05:12.549Z,44.13
2022-11-28T17:08:01.916Z,51.95
2022-11-28T17:10:52.898Z,54.10
2022-11-28T17:13:41.366Z,58.40
2022-11-28T17:16:34.036Z,55.58
2022-11-28T17:19:22.352Z,57.80
2022-11-28T17:22:26.465Z,57.55
2022-11-28T17:25:22.562Z,57.45
2022-11-28T17:28:17.330Z,56.30
2022-11-28T17:34:31.604Z,53.40
2022-11-28T17:37:19.865Z,59.95
2022-11-28T17:40:27.929Z,54.97
2022-11-28T17:44:25.564Z,55.45
2022-11-28T17:46:59.249Z,57.20
2022-11-28T17:49:59.786Z,63.92
2022-11-28T17:52:55.699Z,53.70
2022-11-28T17:55:50.120Z,57.15
2022-11-28T17:59:22.359Z,55.25
2022-11-28T18:02:13.699Z,55.67
2022-11-28T18:05:15.359Z,60.75
2022-11-28T18:08:33.990Z,56.08
2022-11-28T18:11:55.109Z,52.20
2022-11-28T18:14:55.938Z,52.88
2022-11-28T18:18:11.631Z,54.58
2022-11-28T18:21:03.223Z,54.20
2022-11-28T18:24:08.966Z,49.17
2022-11-28T18:27:19.407Z,54.15
2022-11-28T18:30:40.747Z,54.00
2022-11-28T18:34:00.229Z,56.03
2022-11-28T18:37:17.280Z,62.95
2022-11-28T18:47:04.738Z,56.72
2022-11-28T18:53:34.321Z,60.30
2022-11-28T18:56:28.969Z,59.67
2022-11-28T18:59:31.933Z,57.15
2022-11-28T19:02:25.924Z,53.13
2022-11-28T19:05:14.744Z,52.30
2022-11-28T19:08:10.282Z,50.33
2022-11-28T19:11:07.155Z,53.70
2022-11-28T19:14:00.609Z,49.90
2022-11-28T19:17:05.528Z,50.70
2022-11-28T19:19:57.503Z,55.40
2022-11-28T19:22:54.124Z,52.67
2022-11-28T19:25:46.510Z,49.60
2022-11-28T19:28:42.608Z,55.17
2022-11-28T19:31:34.858Z,54.45
2022-11-28T19:34:26.650Z,55.58
2022-11-28T19:37:18.145Z,50.67
2022-11-28T19:40:10.845Z,49.55
2022-11-28T19:43:00.135Z,48.05
2022-11-28T19:46:05.219Z,48.58
2022-11-28T19:49:00.855Z,49.88
2022-11-28T19:51:57.629Z,51.53
2022-11-28T19:55:05.802Z,50.25
2022-11-28T19:57:58.066Z,61.22
2022-11-28T20:00:49.961Z,67.53
2022-11-28T20:03:51.461Z,72.78
2022-11-28T20:06:47.854Z,69.97
2022-11-28T20:09:38.030Z,76.15
2022-11-28T20:12:27.394Z,79.15
2022-11-28T20:15:18.335Z,77.40
2022-11-28T20:18:19.067Z,77.90
2022-11-28T20:21:39.910Z,75.30
2022-11-28T20:24:38.275Z,70.88
2022-11-28T20:27:27.005Z,75.35
2022-11-28T20:30:15.517Z,79.60
2022-11-28T20:33:03.841Z,70.75
2022-11-28T20:35:56.981Z,71.85
2022-11-28T20:38:48.672Z,67.97
2022-11-28T20:41:40.068Z,67.85
2022-11-28T20:44:28.556Z,74.05
2022-11-28T20:47:18.939Z,72.25
2022-11-28T20:50:08.582Z,72.75
2022-11-28T20:52:57.086Z,65.30
2022-11-28T20:55:47.403Z,71.05
2022-11-28T20:58:39.789Z,67.15
2022-11-28T21:01:34.791Z,70.25
2022-11-28T21:04:25.707Z,67.60
2022-11-28T21:07:40.817Z,61.05
2022-11-28T21:11:59.051Z,71.40
2022-11-28T21:41:00.320Z,70.65
2022-11-28T21:45:10.916Z,78.47
2022-11-28T21:48:44.451Z,74.57
2022-11-28T21:52:02.714Z,64.80
2022-11-28T21:55:28.728Z,65.85
2022-11-28T22:02:14.212Z,57.35
2022-11-28T22:05:26.548Z,66.30
2022-11-28T22:15:46.064Z,56.83
2022-11-28T22:18:34.828Z,56.85
2022-11-28T22:24:33.418Z,65.40
2022-11-28T22:27:22.021Z,61.88
2022-11-28T22:30:10.516Z,60.83
2022-11-28T22:32:58.385Z,59.13
2022-11-28T22:35:46.176Z,59.05
2022-11-28T22:38:34.251Z,60.25
2022-11-28T22:41:28.417Z,62.35
2022-11-28T22:44:16.988Z,60.92
2022-11-28T22:47:05.152Z,63.92
2022-11-28T22:49:55.831Z,58.63
2022-11-28T22:52:44.243Z,58.22
2022-11-28T22:55:37.229Z,55.45
2022-11-28T22:58:25.007Z,59.63
2022-11-28T23:01:19.101Z,59.42
2022-11-28T23:06:54.789Z,63.88
2022-11-28T23:09:42.782Z,63.40
2022-11-28T23:12:30.758Z,65.70
2022-11-28T23:15:18.748Z,67.18
2022-11-28T23:18:06.634Z,60.28
2022-11-28T23:20:56.511Z,61.03
2022-11-28T23:23:45.988Z,62.33
2022-11-28T23:26:35.267Z,64.07
2022-11-28T23:29:23.172Z,67.00
2022-11-28T23:32:11.004Z,65.85
2022-11-28T23:35:00.147Z,60.40
2022-11-28T23:37:48.035Z,72.75
2022-11-28T23:40:36.009Z,76.40
2022-11-28T23:43:23.887Z,89.43
2022-11-28T23:46:13.932Z,81.55
2022-11-28T23:49:05.641Z,84.28
2022-11-28T23:51:53.653Z,87.55
2022-11-28T23:54:42.018Z,76.03
2022-11-28T23:57:30.077Z,74.85
